Time;durP1;ratioP1;P1;durP2;ratioP2;P2;SDS_P1;SDS_P2;PMS_P1;PMS_P2;Temp;Humidity;BMP_temperature;BMP_pressure;BME280_temperature;BME280_humidity;BME280_pressure;Samples;Min_cycle;Max_cycle;Signal;HPM_P1;HPM_P2
2023/09/15 00:01:04;;;;;;;6.17;1.73;;;13.90;99.90;;;;;;5031814;28;20608;-72
2023/09/15 00:03:33;;;;;;;3.70;1.40;;;13.90;99.90;;;;;;5013652;28;20221;-73
2023/09/15 00:06:00;;;;;;;4.30;1.60;;;13.90;99.90;;;;;;5032897;28;20215;-80
2023/09/15 00:08:28;;;;;;;4.70;1.80;;;13.90;99.90;;;;;;5032286;28;20197;-83
2023/09/15 00:10:55;;;;;;;2.43;1.20;;;13.90;99.90;;;;;;5032647;28;20314;-72
2023/09/15 00:13:22;;;;;;;2.20;1.40;;;13.80;99.90;;;;;;5032801;28;20204;-82
2023/09/15 00:15:51;;;;;;;2.43;1.40;;;13.90;99.90;;;;;;5013733;28;20238;-82
2023/09/15 00:18:19;;;;;;;3.50;1.20;;;13.80;99.90;;;;;;5031336;28;20196;-74
2023/09/15 00:20:47;;;;;;;3.57;1.57;;;13.80;99.90;;;;;;5032019;28;20215;-82
2023/09/15 00:23:15;;;;;;;3.50;1.40;;;13.70;99.90;;;;;;5030968;28;20203;-74
2023/09/15 00:25:45;;;;;;;2.60;1.40;;;13.70;99.90;;;;;;5033315;28;20595;-74
2023/09/15 00:28:13;;;;;;;3.03;1.20;;;13.70;99.90;;;;;;5015333;28;20197;-84
2023/09/15 00:30:40;;;;;;;5.97;1.77;;;13.70;99.90;;;;;;5033031;28;20561;-81
2023/09/15 00:33:08;;;;;;;1.73;1.20;;;13.60;99.90;;;;;;5032251;28;20196;-82
2023/09/15 00:35:35;;;;;;;2.60;1.30;;;13.80;99.90;;;;;;5031683;28;20273;-83
2023/09/15 00:38:03;;;;;;;2.63;1.37;;;13.80;99.90;;;;;;5031783;28;20249;-73
2023/09/15 06:47:41;;;;;;;4.40;1.90;;;13.90;99.90;;;;;;5283317;24;20667;-81
2023/09/15 06:50:20;;;;;;;3.67;1.97;;;14.00;99.90;;;;;;4786671;29;20611;-83
2023/09/15 06:52:51;;;;;;;4.93;1.90;;;14.00;99.90;;;;;;4790484;29;20237;-80
2023/09/15 06:55:57;;;;;;;4.40;1.67;;;14.00;99.90;;;;;;4793421;29;20243;-81
2023/09/15 06:58:42;;;;;;;4.03;1.70;;;14.10;99.90;;;;;;4791727;29;20199;-76
2023/09/15 07:01:13;;;;;;;4.13;1.80;;;14.20;99.90;;;;;;4806397;29;20195;-78
2023/09/15 07:03:53;;;;;;;2.80;1.70;;;14.30;99.90;;;;;;4803505;29;20192;-85
2023/09/15 07:06:42;;;;;;;5.23;2.00;;;14.40;99.90;;;;;;4805470;29;20228;-77
2023/09/15 07:09:30;;;;;;;4.37;2.00;;;14.50;99.90;;;;;;4806517;29;20196;-81
2023/09/15 07:12:04;;;;;;;5.30;1.97;;;14.40;99.90;;;;;;4788242;29;20659;-77
2023/09/15 07:14:32;;;;;;;3.73;1.90;;;14.50;99.90;;;;;;4806120;29;20213;-81
2023/09/15 07:17:12;;;;;;;4.40;1.83;;;14.60;99.90;;;;;;4789661;29;20227;-79
2023/09/15 07:19:46;;;;;;;3.13;1.90;;;14.70;99.90;;;;;;4789760;29;20231;-79
2023/09/15 07:22:17;;;;;;;4.20;2.10;;;14.90;99.90;;;;;;4774883;29;20579;-80
2023/09/15 07:24:53;;;;;;;10.37;2.57;;;14.90;99.90;;;;;;4803043;29;20194;-79
2023/09/15 07:32:34;;;;;;;4.83;1.90;;;15.10;99.90;;;;;;4728493;30;20198;-85
2023/09/15 07:35:02;;;;;;;5.80;2.17;;;15.20;99.90;;;;;;4684585;30;20688;-76
2023/09/15 07:37:29;;;;;;;3.73;2.10;;;15.40;99.90;;;;;;4715531;30;20276;-78
2023/09/15 07:40:03;;;;;;;5.33;2.20;;;15.40;99.90;;;;;;4714847;30;20320;-77
2023/09/15 07:42:31;;;;;;;4.47;1.93;;;15.50;99.90;;;;;;4714744;30;20226;-77
2023/09/15 07:45:02;;;;;;;6.73;1.90;;;15.70;99.90;;;;;;4714988;30;20316;-77
2023/09/15 07:47:31;;;;;;;3.47;2.00;;;15.70;99.90;;;;;;4715059;30;20247;-78
2023/09/15 07:50:04;;;;;;;10.00;2.70;;;15.60;99.90;;;;;;4715159;30;20234;-75
2023/09/15 07:52:33;;;;;;;6.37;2.30;;;15.70;99.90;;;;;;4714372;30;20221;-78
2023/09/15 07:55:04;;;;;;;3.37;1.80;;;15.90;99.90;;;;;;4714597;30;20207;-76
2023/09/15 07:57:34;;;;;;;4.70;2.03;;;16.10;99.90;;;;;;4714203;30;20296;-77
2023/09/15 08:00:02;;;;;;;4.67;1.80;;;16.10;99.90;;;;;;4714761;30;20686;-77
2023/09/15 08:02:31;;;;;;;6.33;2.10;;;16.20;99.90;;;;;;4714946;30;20310;-76
2023/09/15 08:05:02;;;;;;;7.00;2.20;;;16.30;99.90;;;;;;4730052;29;20220;-77
2023/09/15 08:07:30;;;;;;;4.67;1.80;;;16.50;99.90;;;;;;4789594;29;20207;-76
2023/09/15 08:10:06;;;;;;;5.50;2.10;;;16.50;99.90;;;;;;4805354;29;20204;-76
2023/09/15 08:12:34;;;;;;;6.83;2.40;;;16.60;99.90;;;;;;4789394;29;20227;-77
2023/09/15 08:15:06;;;;;;;5.03;2.10;;;16.60;99.90;;;;;;4789263;29;20237;-76
2023/09/15 08:17:35;;;;;;;4.67;2.20;;;16.70;99.90;;;;;;4789174;29;20231;-76
2023/09/15 08:20:07;;;;;;;7.30;2.10;;;16.90;99.90;;;;;;4805171;29;20252;-79
2023/09/15 08:22:44;;;;;;;5.80;1.80;;;17.70;99.90;;;;;;4804561;29;20467;-78
2023/09/15 08:25:12;;;;;;;2.83;1.60;;;18.90;99.90;;;;;;4805685;29;20204;-77
2023/09/15 08:27:48;;;;;;;6.47;2.07;;;19.80;99.90;;;;;;4805446;29;20207;-74
2023/09/15 08:30:16;;;;;;;5.03;1.83;;;20.40;99.90;;;;;;4805351;29;20294;-77
2023/09/15 08:33:02;;;;;;;6.27;1.87;;;20.90;99.90;;;;;;4805514;29;20697;-78
2023/09/15 08:35:33;;;;;;;7.50;1.87;;;21.30;99.90;;;;;;4789495;29;20311;-78
2023/09/15 08:38:05;;;;;;;7.10;1.77;;;21.50;99.90;;;;;;4804543;29;20260;-76
2023/09/15 08:41:05;;;;;;;3.17;1.40;;;21.50;99.90;;;;;;4790247;29;20199;-77
2023/09/15 08:43:39;;;;;;;3.37;1.43;;;21.90;99.90;;;;;;4789672;29;20710;-79
2023/09/15 08:46:12;;;;;;;4.63;1.80;;;22.10;99.90;;;;;;4804674;29;20774;-76
2023/09/15 08:48:48;;;;;;;2.43;1.43;;;22.30;99.90;;;;;;4804117;29;20730;-73
2023/09/15 08:51:17;;;;;;;4.27;1.67;;;22.40;99.90;;;;;;4804739;29;20223;-76
2023/09/15 08:53:45;;;;;;;5.07;1.47;;;22.70;99.90;;;;;;4802303;29;20256;-74
2023/09/15 08:56:14;;;;;;;3.13;1.30;;;22.90;99.90;;;;;;4787379;29;20289;-75
2023/09/15 08:58:42;;;;;;;4.73;1.50;;;23.10;99.90;;;;;;4803885;29;20199;-76
2023/09/15 09:01:09;;;;;;;3.83;1.43;;;23.30;99.90;;;;;;4803787;29;20199;-76
2023/09/15 09:03:38;;;;;;;2.17;1.37;;;23.50;99.90;;;;;;4805101;29;20206;-74
2023/09/15 09:06:11;;;;;;;3.23;1.50;;;23.40;99.90;;;;;;4802995;29;20234;-74
2023/09/15 09:08:44;;;;;;;5.27;1.60;;;23.20;99.90;;;;;;4802776;29;20552;-74
2023/09/15 09:11:13;;;;;;;3.67;1.80;;;23.20;99.90;;;;;;4787601;29;20660;-73
2023/09/15 09:13:41;;;;;;;3.00;1.60;;;23.50;99.90;;;;;;4803053;29;20195;-75
2023/09/15 09:16:13;;;;;;;3.07;1.47;;;24.00;99.90;;;;;;4804857;29;20227;-72
2023/09/15 09:18:41;;;;;;;2.58;1.45;;;24.40;99.90;;;;;;4786615;29;20732;-76
2023/09/15 09:21:08;;;;;;;2.50;1.60;;;24.70;99.90;;;;;;4787146;29;20224;-75
2023/09/15 09:23:36;;;;;;;3.30;1.60;;;24.80;99.90;;;;;;4803557;29;20290;-75
2023/09/15 09:26:11;;;;;;;5.30;1.90;;;24.90;99.90;;;;;;4803858;29;20272;-76
2023/09/15 09:28:38;;;;;;;2.42;1.50;;;25.00;99.90;;;;;;4805073;29;20276;-76
2023/09/15 09:31:08;;;;;;;1.98;1.30;;;25.00;99.90;;;;;;4787484;29;20727;-74
2023/09/15 09:33:37;;;;;;;1.85;1.10;;;25.00;99.90;;;;;;4788156;29;20298;-76
2023/09/15 09:36:11;;;;;;;6.05;1.40;;;25.00;99.90;;;;;;4802675;29;20280;-77
2023/09/15 09:38:45;;;;;;;3.67;1.40;;;25.40;99.90;;;;;;4803094;29;20284;-75
2023/09/15 09:41:15;;;;;;;3.65;1.33;;;25.80;99.90;;;;;;4803028;29;20210;-76
2023/09/15 09:43:46;;;;;;;2.80;1.50;;;26.00;99.90;;;;;;4803694;29;20695;-76
2023/09/15 09:46:21;;;;;;;5.60;1.55;;;26.30;99.90;;;;;;4803153;29;20580;-76
2023/09/15 09:48:50;;;;;;;2.55;1.20;;;26.80;99.90;;;;;;4801338;29;20239;-76
2023/09/15 09:51:18;;;;;;;2.50;1.35;;;27.00;99.20;;;;;;4804192;29;20224;-77
2023/09/15 09:53:52;;;;;;;4.03;1.60;;;26.70;98.20;;;;;;4804153;29;20206;-77
2023/09/15 09:56:19;;;;;;;3.50;1.30;;;26.70;98.30;;;;;;4803708;29;20223;-77
2023/09/15 09:58:48;;;;;;;2.72;1.30;;;27.10;97.00;;;;;;4806149;29;20408;-76
2023/09/15 10:01:16;;;;;;;2.85;1.30;;;27.20;96.50;;;;;;4807584;29;20226;-75
2023/09/15 10:03:43;;;;;;;2.55;1.25;;;27.50;95.40;;;;;;4806362;29;20204;-76
2023/09/15 10:06:11;;;;;;;5.20;1.27;;;27.70;94.90;;;;;;4806547;29;20288;-74
2023/09/15 10:08:42;;;;;;;1.75;1.10;;;27.90;94.90;;;;;;4806287;29;20291;-76
2023/09/15 10:11:09;;;;;;;3.15;1.50;;;28.40;94.20;;;;;;4806779;29;20199;-75
2023/09/15 10:13:38;;;;;;;2.28;1.25;;;28.60;93.80;;;;;;4791489;29;20644;-77
2023/09/15 10:16:06;;;;;;;1.63;1.10;;;28.80;92.50;;;;;;4807316;29;20582;-76
2023/09/15 10:18:37;;;;;;;4.22;1.30;;;28.90;91.90;;;;;;4806692;29;20523;-78
2023/09/15 10:21:14;;;;;;;4.60;1.50;;;29.20;90.60;;;;;;4805678;29;20596;-78
2023/09/15 10:23:44;;;;;;;3.70;1.20;;;29.10;90.80;;;;;;4807558;29;20200;-77
2023/09/15 10:26:21;;;;;;;2.70;1.13;;;29.10;89.30;;;;;;4807060;29;20203;-77
2023/09/15 10:28:54;;;;;;;2.30;1.30;;;29.00;89.70;;;;;;4806292;29;20248;-78
2023/09/15 10:31:29;;;;;;;2.85;1.30;;;29.40;88.10;;;;;;4783942;29;20564;-76
2023/09/15 10:34:01;;;;;;;4.28;1.45;;;29.30;87.10;;;;;;4807618;29;20203;-74
2023/09/15 10:36:28;;;;;;;20.38;3.30;;;29.30;85.70;;;;;;4806264;29;20292;-75
2023/09/15 10:38:58;;;;;;;6.57;1.85;;;29.60;84.30;;;;;;4807035;29;20286;-75
2023/09/15 10:41:27;;;;;;;2.03;1.17;;;29.70;84.20;;;;;;4805824;29;20651;-76
2023/09/15 10:43:55;;;;;;;3.63;1.20;;;29.70;82.20;;;;;;4807105;29;20218;-74
2023/09/15 10:46:34;;;;;;;2.72;1.23;;;29.70;82.70;;;;;;4805219;29;20225;-75
2023/09/15 10:49:19;;;;;;;3.40;1.20;;;29.30;84.50;;;;;;4806647;29;20242;-75
2023/09/15 10:51:57;;;;;;;2.05;1.35;;;29.80;83.30;;;;;;4789537;29;20466;-75
2023/09/15 10:54:31;;;;;;;4.55;1.30;;;30.40;81.20;;;;;;4805450;29;20339;-76
2023/09/15 10:56:59;;;;;;;2.25;1.10;;;30.60;79.00;;;;;;4805241;29;20231;-76
2023/09/15 10:59:27;;;;;;;2.17;1.20;;;30.90;76.00;;;;;;4806090;29;20239;-74
2023/09/15 11:01:55;;;;;;;3.88;1.40;;;31.00;74.60;;;;;;4806385;29;20641;-75
2023/09/15 11:04:25;;;;;;;3.33;1.35;;;30.90;75.20;;;;;;4805799;29;20200;-74
2023/09/15 11:06:53;;;;;;;2.55;1.08;;;31.00;74.20;;;;;;4806050;29;20281;-76
2023/09/15 11:09:25;;;;;;;2.17;1.10;;;31.00;72.90;;;;;;4806213;29;20203;-77
2023/09/15 11:11:53;;;;;;;1.58;1.05;;;31.10;72.60;;;;;;4806532;29;20207;-75
2023/09/15 11:14:22;;;;;;;2.63;1.20;;;31.20;71.50;;;;;;4805416;29;20460;-76
2023/09/15 11:16:55;;;;;;;2.20;1.30;;;31.30;71.60;;;;;;4806355;29;20223;-76
2023/09/15 11:19:44;;;;;;;3.97;1.40;;;31.60;70.70;;;;;;4806618;29;20590;-75
2023/09/15 11:22:11;;;;;;;4.20;1.50;;;32.20;71.00;;;;;;4775040;29;20776;-77
2023/09/15 11:24:39;;;;;;;2.88;1.35;;;32.30;67.70;;;;;;4806408;29;20208;-75
2023/09/15 11:27:06;;;;;;;3.58;1.30;;;32.50;66.40;;;;;;4789985;29;20208;-75
2023/09/15 11:29:34;;;;;;;3.88;1.35;;;32.50;66.40;;;;;;4789440;29;20575;-77
2023/09/15 11:32:02;;;;;;;1.73;1.00;;;32.60;64.90;;;;;;4804988;29;20279;-76
2023/09/15 11:34:31;;;;;;;1.45;1.10;;;33.50;65.00;;;;;;4804515;29;20211;-75
2023/09/15 11:37:21;;;;;;;2.15;1.20;;;34.00;61.50;;;;;;4807550;29;20608;-76
2023/09/15 11:39:58;;;;;;;3.33;1.30;;;34.80;59.30;;;;;;4805716;29;20208;-75
2023/09/15 11:42:26;;;;;;;2.40;1.17;;;35.00;58.40;;;;;;4804985;29;20204;-76
2023/09/15 11:44:55;;;;;;;2.50;1.30;;;35.20;56.40;;;;;;4805933;29;20532;-74
2023/09/15 11:47:22;;;;;;;2.17;1.13;;;35.30;57.10;;;;;;4804558;29;20244;-73
2023/09/15 11:49:50;;;;;;;3.28;1.40;;;35.60;56.70;;;;;;4805072;29;20208;-74
2023/09/15 11:52:18;;;;;;;2.42;1.20;;;36.10;56.90;;;;;;4805878;29;20224;-74
2023/09/15 11:54:46;;;;;;;2.10;1.27;;;36.00;55.40;;;;;;4804286;29;20239;-74
2023/09/15 11:57:13;;;;;;;1.58;1.17;;;36.20;55.20;;;;;;4804560;29;20215;-74
2023/09/15 11:59:41;;;;;;;2.55;1.40;;;36.20;53.90;;;;;;4790002;29;20260;-74
2023/09/15 12:02:09;;;;;;;1.70;1.20;;;36.00;54.60;;;;;;4806101;29;20230;-73
2023/09/15 12:04:36;;;;;;;2.28;1.20;;;36.20;53.70;;;;;;4804023;29;20571;-73
2023/09/15 12:07:05;;;;;;;1.83;1.23;;;36.70;53.00;;;;;;4804045;29;20648;-74
2023/09/15 12:09:33;;;;;;;2.55;1.23;;;37.00;52.90;;;;;;4805148;29;20253;-75
2023/09/15 12:12:02;;;;;;;2.42;1.23;;;36.50;52.30;;;;;;4804907;29;20204;-73
2023/09/15 12:14:30;;;;;;;1.50;1.05;;;36.90;53.00;;;;;;4805652;29;20211;-74
2023/09/15 12:16:57;;;;;;;1.65;1.17;;;37.10;52.10;;;;;;4805029;29;20250;-73
2023/09/15 12:19:25;;;;;;;2.10;1.10;;;37.40;50.30;;;;;;4803193;29;20203;-75
2023/09/15 12:21:59;;;;;;;1.90;1.20;;;37.10;50.50;;;;;;4803893;29;20280;-73
2023/09/15 12:24:28;;;;;;;1.75;1.20;;;37.40;50.70;;;;;;4788210;29;20207;-73
2023/09/15 12:27:00;;;;;;;5.07;1.30;;;37.00;50.40;;;;;;4805225;29;20218;-75
2023/09/15 12:29:28;;;;;;;4.18;1.17;;;36.60;50.80;;;;;;4804172;29;20210;-75
2023/09/15 12:31:57;;;;;;;5.75;1.90;;;36.60;51.00;;;;;;4804380;29;20212;-74
2023/09/15 12:34:27;;;;;;;2.63;1.20;;;36.50;50.70;;;;;;4803602;29;20726;-73
2023/09/15 12:36:56;;;;;;;2.65;1.30;;;36.80;50.50;;;;;;4789322;29;20299;-75
2023/09/15 12:39:24;;;;;;;2.72;1.33;;;36.30;50.80;;;;;;4803684;29;20272;-74
2023/09/15 12:42:05;;;;;;;2.35;1.20;;;36.10;50.90;;;;;;4804451;29;20207;-74
2023/09/15 12:44:35;;;;;;;2.30;1.23;;;35.80;51.20;;;;;;4805041;29;20711;-74
2023/09/15 12:47:04;;;;;;;1.92;1.30;;;34.70;52.30;;;;;;4804699;29;20288;-74
2023/09/15 12:49:32;;;;;;;1.85;1.08;;;34.70;52.60;;;;;;4805301;29;20204;-74
2023/09/15 12:51:59;;;;;;;3.20;1.20;;;34.10;53.30;;;;;;4805160;29;20227;-75
2023/09/15 12:54:27;;;;;;;2.10;1.30;;;33.30;53.70;;;;;;4805038;29;20199;-74
2023/09/15 12:57:00;;;;;;;2.20;1.30;;;32.20;55.20;;;;;;4803495;29;20200;-76
2023/09/15 12:59:28;;;;;;;17.20;3.28;;;31.40;56.70;;;;;;4804592;29;20302;-74
2023/09/15 13:01:56;;;;;;;1.80;1.20;;;30.30;58.30;;;;;;4804052;29;20207;-74
2023/09/15 13:04:24;;;;;;;3.45;1.20;;;29.60;59.50;;;;;;4803479;29;20418;-74
2023/09/15 13:06:54;;;;;;;2.15;1.40;;;29.00;60.70;;;;;;4804273;29;20560;-75
2023/09/15 13:09:24;;;;;;;1.58;1.05;;;28.40;63.60;;;;;;4804132;29;20640;-75
2023/09/15 13:11:51;;;;;;;2.40;1.50;;;28.10;64.30;;;;;;4804021;29;20256;-75
2023/09/15 13:14:19;;;;;;;2.03;1.35;;;27.80;64.10;;;;;;4804158;29;20199;-76
2023/09/15 13:16:48;;;;;;;4.80;1.40;;;27.40;65.00;;;;;;4804625;29;20203;-75
2023/09/15 13:19:15;;;;;;;3.03;1.30;;;27.20;65.60;;;;;;4803534;29;20211;-75
2023/09/15 13:21:44;;;;;;;1.98;1.35;;;26.90;65.60;;;;;;4804227;29;20226;-74
2023/09/15 13:24:12;;;;;;;3.95;1.50;;;26.50;66.60;;;;;;4804825;29;20199;-74
2023/09/15 13:26:41;;;;;;;3.20;1.50;;;25.90;68.70;;;;;;4804289;29;20280;-72
2023/09/15 13:29:10;;;;;;;4.60;1.48;;;25.60;69.40;;;;;;4804399;29;20207;-76
2023/09/15 13:31:38;;;;;;;3.50;1.50;;;25.30;71.20;;;;;;4806245;29;20260;-72
2023/09/15 13:34:05;;;;;;;4.55;1.65;;;25.00;72.10;;;;;;4807078;29;20260;-74
2023/09/15 13:36:33;;;;;;;3.75;1.75;;;24.60;73.50;;;;;;4808220;29;20292;-73
2023/09/15 13:39:01;;;;;;;3.85;1.60;;;24.50;75.30;;;;;;4807097;29;20227;-76
2023/09/15 13:41:29;;;;;;;3.03;1.50;;;24.40;75.50;;;;;;4806875;29;20203;-75
2023/09/15 13:43:56;;;;;;;2.10;1.58;;;24.30;74.50;;;;;;4807086;29;20264;-75
2023/09/15 13:46:24;;;;;;;2.25;1.48;;;24.20;73.50;;;;;;4806956;29;20204;-75
2023/09/15 13:48:52;;;;;;;2.90;1.50;;;24.20;75.60;;;;;;4806942;29;20234;-75
2023/09/15 13:51:19;;;;;;;2.85;1.45;;;24.00;75.50;;;;;;4806373;29;20356;-74
2023/09/15 13:53:59;;;;;;;3.03;1.65;;;23.90;75.20;;;;;;4806504;29;20199;-75
2023/09/15 13:56:28;;;;;;;1.98;1.40;;;23.70;75.80;;;;;;4807108;29;20277;-75
2023/09/15 13:58:56;;;;;;;3.72;1.30;;;23.80;75.60;;;;;;4806175;29;20227;-73
2023/09/15 14:01:23;;;;;;;3.42;1.60;;;23.70;75.80;;;;;;4806631;29;20223;-76
2023/09/15 14:03:52;;;;;;;3.27;1.60;;;23.70;77.30;;;;;;4806679;29;20207;-74
2023/09/15 14:06:19;;;;;;;3.67;1.67;;;23.70;76.90;;;;;;4806774;29;20219;-76
2023/09/15 14:08:48;;;;;;;3.30;1.40;;;23.60;77.50;;;;;;4806539;29;20204;-74
2023/09/15 14:11:16;;;;;;;2.93;1.50;;;23.50;77.00;;;;;;4806825;29;20229;-77
2023/09/15 14:13:47;;;;;;;6.33;1.77;;;23.50;78.60;;;;;;4790253;29;20212;-78
2023/09/15 14:16:15;;;;;;;3.23;1.60;;;23.30;78.30;;;;;;4807761;29;20612;-76
2023/09/15 14:18:49;;;;;;;3.07;1.50;;;23.20;79.10;;;;;;4806934;29;20588;-78
2023/09/15 14:21:17;;;;;;;2.87;1.50;;;23.30;80.80;;;;;;4807718;29;20302;-76
2023/09/15 14:27:15;;;;;;;2.75;1.42;;;23.00;81.90;;;;;;4807832;29;20195;-75
2023/09/15 14:29:44;;;;;;;3.47;1.50;;;23.00;83.10;;;;;;4807630;29;20204;-78
2023/09/15 14:32:18;;;;;;;2.25;1.63;;;23.00;83.60;;;;;;4805138;29;20648;-77
2023/09/15 14:34:52;;;;;;;3.17;1.43;;;23.00;84.60;;;;;;4807220;29;20232;-77
2023/09/15 14:37:31;;;;;;;3.70;1.50;;;22.80;82.40;;;;;;4806207;29;20215;-77
2023/09/15 14:40:08;;;;;;;3.13;1.70;;;22.70;82.60;;;;;;4806925;29;20691;-77
2023/09/15 14:42:38;;;;;;;3.47;1.60;;;22.60;84.30;;;;;;4789940;29;20655;-77
2023/09/15 14:45:06;;;;;;;2.13;1.30;;;22.50;85.40;;;;;;4790713;29;20207;-77
2023/09/15 14:47:36;;;;;;;3.43;1.63;;;22.40;84.50;;;;;;4806814;29;20255;-77
2023/09/15 14:50:05;;;;;;;2.37;1.40;;;22.40;85.10;;;;;;4805707;29;20644;-77
2023/09/15 14:52:44;;;;;;;4.13;1.70;;;22.30;85.70;;;;;;4807239;29;20272;-77
2023/09/15 14:55:15;;;;;;;5.20;1.50;;;22.20;85.80;;;;;;4806898;29;20220;-78
2023/09/15 14:57:43;;;;;;;2.67;1.40;;;22.20;85.80;;;;;;4776250;29;20224;-76
2023/09/15 15:00:29;;;;;;;2.73;1.57;;;22.00;85.90;;;;;;4805400;29;20207;-76
2023/09/15 15:03:06;;;;;;;2.87;1.50;;;21.90;87.30;;;;;;4806800;29;20207;-77
2023/09/15 15:05:46;;;;;;;2.80;1.40;;;21.80;88.40;;;;;;4806862;29;20207;-79
2023/09/15 15:08:14;;;;;;;3.13;1.47;;;21.60;87.00;;;;;;4790082;29;20264;-78
2023/09/15 15:10:46;;;;;;;3.03;1.80;;;21.40;88.10;;;;;;4805792;29;20203;-78
2023/09/15 15:13:22;;;;;;;2.97;1.40;;;21.40;88.40;;;;;;4790454;29;20204;-78
2023/09/15 15:16:08;;;;;;;3.40;1.57;;;21.20;88.80;;;;;;4791994;29;20180;-78
2023/09/15 15:18:36;;;;;;;4.20;1.40;;;21.20;90.20;;;;;;4790612;29;20254;-79
2023/09/15 15:21:07;;;;;;;3.43;1.40;;;21.10;90.30;;;;;;4790694;29;20223;-79
2023/09/15 15:23:39;;;;;;;4.80;1.83;;;21.20;89.70;;;;;;4791133;29;20191;-78
2023/09/15 15:26:12;;;;;;;3.73;1.40;;;21.00;90.20;;;;;;4791641;29;20237;-75
2023/09/15 15:28:46;;;;;;;2.53;1.40;;;20.90;90.50;;;;;;4806312;29;20605;-78
2023/09/15 15:31:21;;;;;;;1.97;1.30;;;20.90;90.70;;;;;;4776465;29;20488;-80
2023/09/15 15:34:12;;;;;;;4.53;1.50;;;20.80;90.40;;;;;;4794100;29;20203;-80
2023/09/15 15:36:45;;;;;;;1.50;1.10;;;20.70;90.40;;;;;;4805674;29;20299;-82
2023/09/15 15:39:15;;;;;;;3.20;1.20;;;20.50;90.30;;;;;;4786312;29;20314;-82
2023/09/15 15:42:08;;;;;;;1.93;1.27;;;20.40;90.60;;;;;;4789116;29;20203;-84
2023/09/15 15:48:57;;;;;;;3.33;1.30;;;20.10;91.20;;;;;;4723445;30;20314;-79
2023/09/15 15:52:55;;;;;;;2.93;1.20;;;20.10;91.50;;;;;;4717281;30;20635;-79
2023/09/15 15:55:04;;;;;;;3.07;1.20;;;20.00;91.40;;;;;;4698609;30;20218;-81
2023/09/15 15:58:07;;;;;;;2.97;1.47;;;19.90;91.80;;;;;;4700591;30;20295;-83
2023/09/15 16:01:18;;;;;;;2.10;1.30;;;19.90;91.80;;;;;;4693201;30;20358;-80
2023/09/15 16:04:11;;;;;;;3.13;1.27;;;19.80;92.30;;;;;;4691702;30;21104;-79
2023/09/15 16:06:40;;;;;;;3.57;1.27;;;19.70;92.40;;;;;;4694629;30;20601;-80
2023/09/15 16:09:14;;;;;;;2.87;1.40;;;19.60;92.80;;;;;;4680093;30;20204;-79
2023/09/15 16:11:48;;;;;;;2.67;1.20;;;19.60;93.00;;;;;;4680396;30;20204;-81
2023/09/15 16:14:19;;;;;;;2.37;1.17;;;19.50;93.60;;;;;;4679801;30;20204;-81
2023/09/15 16:16:52;;;;;;;2.03;1.20;;;19.50;93.60;;;;;;4679607;30;20780;-82
2023/09/15 16:19:41;;;;;;;4.70;1.50;;;19.50;94.00;;;;;;4691524;30;20240;-81
2023/09/15 16:22:18;;;;;;;2.47;1.30;;;19.50;94.10;;;;;;4693998;30;20236;-79
2023/09/15 16:24:56;;;;;;;3.03;1.40;;;19.40;94.40;;;;;;4693989;30;20330;-81
2023/09/15 16:27:32;;;;;;;2.80;1.30;;;19.40;95.20;;;;;;4693649;30;20316;-81
2023/09/15 16:30:14;;;;;;;5.40;1.63;;;19.30;95.00;;;;;;4693413;30;20389;-82
2023/09/15 16:33:06;;;;;;;3.30;1.30;;;19.20;95.60;;;;;;4780285;29;20211;-82
2023/09/15 16:36:10;;;;;;;3.93;1.40;;;19.10;95.90;;;;;;4738039;30;20241;-83
2023/09/15 16:38:38;;;;;;;3.43;1.30;;;19.00;96.20;;;;;;4734085;30;20282;-82
2023/09/15 16:41:09;;;;;;;1.60;1.10;;;18.90;96.60;;;;;;4734487;30;20655;-80
2023/09/15 16:43:50;;;;;;;2.10;1.37;;;18.90;96.60;;;;;;4733694;30;20248;-81
2023/09/15 16:46:28;;;;;;;3.20;1.37;;;18.80;96.80;;;;;;4749067;30;20611;-82
2023/09/15 16:49:03;;;;;;;1.83;1.07;;;18.70;96.80;;;;;;4719423;30;20329;-81
2023/09/15 16:51:40;;;;;;;4.50;1.60;;;18.60;97.20;;;;;;4749270;30;20233;-79
2023/09/15 16:54:10;;;;;;;5.27;1.70;;;18.60;97.20;;;;;;4748460;30;20637;-78
2023/09/15 16:56:38;;;;;;;2.57;1.30;;;18.50;97.20;;;;;;4748403;30;20205;-79
2023/09/15 16:59:06;;;;;;;3.30;1.30;;;18.50;97.50;;;;;;4748304;30;20332;-78
2023/09/15 17:01:37;;;;;;;3.03;1.23;;;18.40;97.50;;;;;;4748689;30;20644;-79
2023/09/15 17:04:09;;;;;;;3.47;1.20;;;18.30;97.70;;;;;;4749298;30;20670;-79
2023/09/15 17:06:42;;;;;;;1.60;1.30;;;18.20;98.00;;;;;;4748012;30;20222;-81
2023/09/15 17:09:15;;;;;;;1.80;1.20;;;18.20;98.40;;;;;;4720004;30;20194;-81
2023/09/15 17:13:01;;;;;;;;;;;;;;;;;;;;;
2023/09/15 17:16:30;;;;;;;2.87;1.30;;;18.00;98.90;;;;;;4635306;30;20222;-79
2023/09/15 19:12:46;;;;;;;;;;;;;;;;;;;;;
2023/09/15 19:15:49;;;;;;;3.10;1.90;;;15.60;99.90;;;;;;4803322;29;20414;-84
2023/09/15 19:18:23;;;;;;;4.83;2.10;;;15.50;99.90;;;;;;4804363;29;20266;-85
2023/09/15 19:20:57;;;;;;;2.80;1.93;;;15.50;99.90;;;;;;4804526;29;20230;-84
2023/09/15 19:23:51;;;;;;;3.67;1.90;;;15.40;99.90;;;;;;4789311;29;20252;-81
2023/09/15 19:26:44;;;;;;;4.80;1.90;;;15.40;99.90;;;;;;4774507;29;20658;-85
2023/09/15 19:29:18;;;;;;;4.43;2.00;;;15.40;99.90;;;;;;4789435;29;20307;-83
2023/09/15 19:32:29;;;;;;;4.97;2.00;;;15.40;99.90;;;;;;4788117;29;21012;-85
2023/09/15 19:35:31;;;;;;;12.03;3.10;;;15.20;99.90;;;;;;4785807;29;20240;-82
2023/09/15 19:38:17;;;;;;;4.73;2.40;;;15.20;99.90;;;;;;4788653;29;20215;-81
2023/09/15 19:41:10;;;;;;;3.10;1.70;;;15.10;99.90;;;;;;4804288;29;20212;-78
2023/09/15 19:43:46;;;;;;;5.47;1.93;;;15.10;99.90;;;;;;4789191;29;20305;-82
2023/09/15 19:46:17;;;;;;;3.43;1.80;;;14.90;99.90;;;;;;4755360;30;20278;-83
2023/09/15 19:48:47;;;;;;;4.80;2.10;;;15.10;99.90;;;;;;4772764;30;20223;-76
2023/09/15 19:51:32;;;;;;;4.03;2.00;;;14.90;99.90;;;;;;4774715;30;20308;-78
2023/09/15 19:54:21;;;;;;;3.73;1.87;;;14.80;99.90;;;;;;4771920;30;20645;-77
2023/09/15 19:57:15;;;;;;;3.57;1.97;;;14.80;99.90;;;;;;4788154;30;20557;-81
2023/09/15 19:59:52;;;;;;;4.40;2.07;;;14.80;99.90;;;;;;4771573;29;20266;-82
2023/09/15 20:02:36;;;;;;;6.53;2.20;;;14.80;99.90;;;;;;4786733;30;20210;-85
2023/09/15 20:05:24;;;;;;;5.03;2.20;;;14.70;99.90;;;;;;4771168;30;20538;-83
2023/09/15 20:07:54;;;;;;;3.37;1.70;;;14.70;99.90;;;;;;4787538;29;20290;-85
2023/09/15 20:10:26;;;;;;;3.43;1.90;;;14.70;99.90;;;;;;4786361;29;20204;-84
2023/09/15 20:12:58;;;;;;;3.60;2.10;;;14.60;99.90;;;;;;4786542;30;20253;-77
2023/09/15 20:15:42;;;;;;;3.77;1.97;;;14.60;99.90;;;;;;4788416;30;20203;-83
2023/09/15 20:18:16;;;;;;;3.77;2.13;;;14.60;99.90;;;;;;4771771;30;20207;-84
2023/09/15 20:20:55;;;;;;;5.80;2.10;;;14.40;99.90;;;;;;4772322;29;20774;-83
2023/09/15 20:23:29;;;;;;;4.33;2.20;;;14.50;99.90;;;;;;4785785;30;20222;-75
2023/09/15 20:25:58;;;;;;;3.03;1.87;;;14.50;99.90;;;;;;4786616;30;20610;-76
2023/09/15 20:28:26;;;;;;;5.73;2.40;;;14.40;99.90;;;;;;4787006;30;20202;-76
2023/09/15 20:30:55;;;;;;;4.87;2.30;;;14.40;99.90;;;;;;4786795;30;20658;-78
2023/09/15 20:33:26;;;;;;;6.63;2.80;;;14.40;99.90;;;;;;4786386;30;20277;-74
2023/09/15 20:35:55;;;;;;;5.37;2.53;;;14.40;99.90;;;;;;4785955;30;20258;-77
2023/09/15 20:38:23;;;;;;;13.63;2.90;;;14.30;99.90;;;;;;4786422;30;20506;-74
2023/09/15 20:40:54;;;;;;;5.37;2.57;;;14.30;99.90;;;;;;4785143;29;20215;-76
2023/09/15 20:43:24;;;;;;;8.97;3.00;;;14.30;99.90;;;;;;4785479;30;20576;-76
2023/09/15 20:45:52;;;;;;;4.70;2.33;;;14.30;99.90;;;;;;4787239;30;20212;-74
2023/09/15 20:48:20;;;;;;;5.17;2.73;;;14.30;99.90;;;;;;4785834;30;20207;-76
2023/09/15 20:50:48;;;;;;;4.67;2.47;;;14.20;99.90;;;;;;4786236;30;20703;-74
2023/09/15 20:53:16;;;;;;;5.27;2.50;;;14.20;99.90;;;;;;4786776;30;20214;-75
2023/09/15 20:55:44;;;;;;;5.63;2.90;;;14.10;99.90;;;;;;4785630;30;20203;-72
2023/09/15 20:58:14;;;;;;;5.53;2.60;;;14.10;99.90;;;;;;4786902;30;20204;-75
2023/09/15 21:00:44;;;;;;;7.60;2.43;;;14.10;99.90;;;;;;4785588;30;20316;-76
2023/09/15 21:03:12;;;;;;;5.27;2.13;;;14.10;99.90;;;;;;4785455;30;20577;-79
2023/09/15 21:05:40;;;;;;;5.10;2.60;;;14.10;99.90;;;;;;4786409;30;20231;-76
2023/09/15 21:08:07;;;;;;;4.37;2.10;;;14.10;99.90;;;;;;4785927;30;20241;-75
2023/09/15 21:10:35;;;;;;;6.63;2.77;;;14.00;99.90;;;;;;4786448;30;20251;-75
2023/09/15 21:13:03;;;;;;;5.63;2.63;;;14.00;99.90;;;;;;4785440;30;20216;-75
2023/09/15 21:15:31;;;;;;;4.90;2.50;;;13.90;99.90;;;;;;4786654;30;20193;-77
2023/09/15 21:17:59;;;;;;;4.93;2.40;;;13.90;99.90;;;;;;4785600;30;20217;-74
2023/09/15 21:20:26;;;;;;;5.60;2.40;;;13.90;99.90;;;;;;4786414;30;20634;-76
2023/09/15 21:22:56;;;;;;;5.53;2.90;;;13.90;99.90;;;;;;4785980;30;20474;-76
2023/09/15 21:25:23;;;;;;;6.00;2.47;;;13.80;99.90;;;;;;4786397;30;20200;-78
2023/09/15 21:27:51;;;;;;;6.87;2.80;;;13.80;99.90;;;;;;4786584;30;20206;-79
2023/09/15 21:30:19;;;;;;;6.10;2.80;;;13.80;99.90;;;;;;4785805;30;20211;-78
2023/09/15 21:32:47;;;;;;;4.53;2.50;;;13.80;99.90;;;;;;4785570;30;20265;-76